createdAt,value
2023-03-07T00:01:06.223Z,81.20
2023-03-07T00:03:32.952Z,81.60
2023-03-07T00:06:02.695Z,81.60
2023-03-07T00:08:29.440Z,81.80
2023-03-07T00:10:56.279Z,81.90
2023-03-07T00:13:22.987Z,82.00
2023-03-07T00:15:49.920Z,81.90
2023-03-07T00:18:16.614Z,81.90
2023-03-07T00:20:44.383Z,81.80
2023-03-07T00:23:11.053Z,81.80
2023-03-07T00:25:37.958Z,81.90
2023-03-07T00:28:04.997Z,81.80
2023-03-07T00:30:31.688Z,81.90
2023-03-07T00:32:59.003Z,81.90
2023-03-07T00:35:25.666Z,81.60
2023-03-07T00:37:55.022Z,81.40
2023-03-07T00:40:21.704Z,81.30
2023-03-07T00:42:48.376Z,81.10
2023-03-07T00:45:15.162Z,81.40
2023-03-07T00:47:41.908Z,82.30
2023-03-07T00:50:09.879Z,82.70
2023-03-07T00:52:39.168Z,82.70
2023-03-07T00:55:07.432Z,82.70
2023-03-07T00:57:34.691Z,82.80
2023-03-07T01:00:01.349Z,82.80
2023-03-07T01:02:28.044Z,82.60
2023-03-07T01:04:54.784Z,82.90
2023-03-07T01:07:21.449Z,83.40
2023-03-07T01:09:51.294Z,83.80
2023-03-07T01:12:17.940Z,83.70
2023-03-07T01:14:44.605Z,83.70
2023-03-07T01:17:11.324Z,83.30
2023-03-07T01:19:39.346Z,82.80
2023-03-07T01:22:06.104Z,82.40
2023-03-07T01:24:32.812Z,82.30
2023-03-07T01:26:59.469Z,82.30
2023-03-07T01:29:26.174Z,82.80
2023-03-07T01:31:53.036Z,83.10
2023-03-07T01:34:19.823Z,83.30
2023-03-07T01:36:46.639Z,83.20
2023-03-07T01:39:14.920Z,83.00
2023-03-07T01:41:42.198Z,83.50
2023-03-07T01:44:17.554Z,83.70
2023-03-07T01:46:49.132Z,83.90
2023-03-07T01:49:36.028Z,84.60
2023-03-07T01:52:12.631Z,83.60
2023-03-07T01:54:41.847Z,83.70
2023-03-07T01:57:08.683Z,83.90
2023-03-07T01:59:38.645Z,83.80
2023-03-07T02:02:07.900Z,83.40
2023-03-07T02:04:38.565Z,83.00
2023-03-07T02:07:05.256Z,82.80
2023-03-07T02:09:31.915Z,82.60
2023-03-07T02:12:00.506Z,82.50
2023-03-07T02:14:27.663Z,82.60
2023-03-07T02:16:54.519Z,82.90
2023-03-07T02:19:34.575Z,82.70
2023-03-07T02:22:12.329Z,82.70
2023-03-07T02:24:41.060Z,82.70
2023-03-07T02:27:07.714Z,82.70
2023-03-07T02:29:34.464Z,82.70
2023-03-07T02:32:01.180Z,82.50
2023-03-07T02:34:29.424Z,82.50
2023-03-07T02:37:09.906Z,82.50
2023-03-07T02:39:36.614Z,82.30
2023-03-07T02:42:11.706Z,82.20
2023-03-07T02:44:38.470Z,82.20
2023-03-07T02:47:08.891Z,82.40
2023-03-07T02:49:36.339Z,81.90
2023-03-07T02:52:03.354Z,81.90
2023-03-07T02:54:30.028Z,82.00
2023-03-07T02:56:56.676Z,81.80
2023-03-07T02:59:23.370Z,81.80
2023-03-07T03:01:50.155Z,81.90
2023-03-07T03:04:16.982Z,82.10
2023-03-07T03:06:44.206Z,82.00
2023-03-07T03:09:11.513Z,81.90
2023-03-07T03:11:38.208Z,82.40
2023-03-07T03:14:04.948Z,82.60
2023-03-07T03:16:31.730Z,82.50
2023-03-07T03:18:58.478Z,82.60
2023-03-07T03:21:25.167Z,82.40
2023-03-07T03:23:51.858Z,82.30
2023-03-07T03:26:18.881Z,82.30
2023-03-07T03:28:47.123Z,82.20
2023-03-07T03:31:17.311Z,82.10
2023-03-07T03:33:44.207Z,82.40
2023-03-07T03:36:12.991Z,82.20
2023-03-07T03:38:39.633Z,81.70
2023-03-07T03:41:07.505Z,81.50
2023-03-07T03:43:34.701Z,81.20
2023-03-07T03:46:01.505Z,81.20
2023-03-07T03:48:28.330Z,81.30
2023-03-07T03:51:01.876Z,81.30
2023-03-07T03:53:28.943Z,81.60
2023-03-07T03:56:05.018Z,81.30
2023-03-07T03:58:32.041Z,81.50
2023-03-07T04:01:00.422Z,81.70
2023-03-07T04:03:27.154Z,81.80
2023-03-07T04:05:53.825Z,81.70
2023-03-07T04:08:22.177Z,81.60
2023-03-07T04:10:49.749Z,81.50
2023-03-07T04:13:16.444Z,81.40
2023-03-07T04:15:43.670Z,81.30
2023-03-07T04:18:10.334Z,81.80
2023-03-07T04:20:37.041Z,82.20
2023-03-07T04:23:03.767Z,82.90
2023-03-07T04:25:30.656Z,82.10
2023-03-07T04:27:57.460Z,81.90
2023-03-07T04:30:24.356Z,82.00
2023-03-07T04:32:51.345Z,81.90
2023-03-07T04:35:18.162Z,82.30
2023-03-07T04:37:45.418Z,82.30
2023-03-07T04:40:12.472Z,82.40
2023-03-07T04:42:39.219Z,82.20
2023-03-07T04:45:06.394Z,82.20
2023-03-07T04:47:33.105Z,82.20
2023-03-07T04:49:59.764Z,82.00
2023-03-07T04:52:26.415Z,82.00
2023-03-07T04:54:53.121Z,81.90
2023-03-07T04:57:20.565Z,82.00
2023-03-07T04:59:48.946Z,82.80
2023-03-07T05:02:15.649Z,81.90
2023-03-07T05:04:42.299Z,81.80
2023-03-07T05:07:09.049Z,81.80
2023-03-07T05:09:35.827Z,81.60
2023-03-07T05:12:02.492Z,81.30
2023-03-07T05:14:29.276Z,80.90
2023-03-07T05:16:55.998Z,80.80
2023-03-07T05:19:23.805Z,80.90
2023-03-07T05:21:50.489Z,81.70
2023-03-07T05:24:17.201Z,81.20
2023-03-07T05:26:43.850Z,81.60
2023-03-07T05:29:10.552Z,81.60
2023-03-07T05:31:37.261Z,82.20
2023-03-07T05:34:04.078Z,81.60
2023-03-07T05:36:30.763Z,81.50
2023-03-07T05:38:57.623Z,81.60
2023-03-07T05:41:24.706Z,81.30
2023-03-07T05:43:51.468Z,81.30
2023-03-07T05:46:20.681Z,81.20
2023-03-07T05:48:47.391Z,81.90
2023-03-07T05:51:14.100Z,81.30
2023-03-07T05:53:40.896Z,81.20
2023-03-07T05:56:07.914Z,81.10
2023-03-07T05:58:34.657Z,80.60
2023-03-07T06:01:04.460Z,80.60
2023-03-07T06:03:31.475Z,80.40
2023-03-07T06:05:58.365Z,80.70
2023-03-07T06:08:25.123Z,80.60
2023-03-07T06:10:53.069Z,80.70
2023-03-07T06:13:22.982Z,80.70
2023-03-07T06:15:54.367Z,80.30
2023-03-07T06:18:22.858Z,80.30
2023-03-07T06:21:02.729Z,80.50
2023-03-07T06:23:30.851Z,80.40
2023-03-07T06:25:57.634Z,80.10
2023-03-07T06:28:25.575Z,79.90
2023-03-07T06:30:52.877Z,80.00
2023-03-07T06:33:20.255Z,80.10
2023-03-07T06:35:47.028Z,79.60
2023-03-07T06:38:15.339Z,79.40
2023-03-07T06:40:42.280Z,79.70
2023-03-07T06:43:10.316Z,81.30
2023-03-07T06:45:37.558Z,80.90
2023-03-07T06:48:04.706Z,81.10
2023-03-07T06:50:35.512Z,80.70
2023-03-07T06:53:02.793Z,80.90
2023-03-07T06:55:29.780Z,81.50
2023-03-07T06:57:56.832Z,81.30
2023-03-07T07:00:25.530Z,81.90
2023-03-07T07:02:53.911Z,81.40
2023-03-07T07:05:21.326Z,81.10
2023-03-07T07:07:48.208Z,81.00
2023-03-07T07:10:15.184Z,80.80
2023-03-07T07:12:42.205Z,80.50
2023-03-07T07:15:10.026Z,80.00
2023-03-07T07:17:39.138Z,79.50
2023-03-07T07:20:07.437Z,79.40
2023-03-07T07:22:34.491Z,79.10
2023-03-07T07:25:01.170Z,78.00
2023-03-07T07:27:28.526Z,78.20
2023-03-07T07:29:56.450Z,78.00
2023-03-07T07:32:23.373Z,77.80
2023-03-07T07:34:50.164Z,77.50
2023-03-07T07:37:16.863Z,77.40
2023-03-07T07:39:44.060Z,77.40
2023-03-07T07:42:13.311Z,77.10
2023-03-07T07:44:40.034Z,77.80
2023-03-07T07:47:06.731Z,77.20
2023-03-07T07:49:33.433Z,77.20
2023-03-07T07:52:00.097Z,77.20
2023-03-07T07:54:27.242Z,76.80
2023-03-07T07:56:54.713Z,76.60
2023-03-07T07:59:22.162Z,76.70
2023-03-07T08:01:49.039Z,76.40
2023-03-07T08:04:15.715Z,76.20
2023-03-07T08:06:44.210Z,76.00
2023-03-07T08:09:11.173Z,75.60
2023-03-07T08:11:37.909Z,75.30
2023-03-07T08:14:04.649Z,75.80
2023-03-07T08:16:31.757Z,74.70
2023-03-07T08:18:58.564Z,74.60
2023-03-07T08:21:26.891Z,74.70
2023-03-07T08:23:55.182Z,74.60
2023-03-07T08:26:22.264Z,74.60
2023-03-07T08:28:49.022Z,74.50
2023-03-07T08:31:17.799Z,74.40
2023-03-07T08:33:46.201Z,74.60
2023-03-07T08:36:14.043Z,74.60
2023-03-07T08:38:40.786Z,74.50
2023-03-07T08:41:08.076Z,74.50
2023-03-07T08:43:36.597Z,74.20
2023-03-07T08:46:03.589Z,74.10
2023-03-07T08:48:30.446Z,74.00
2023-03-07T08:50:57.181Z,74.10
2023-03-07T08:53:24.946Z,73.50
2023-03-07T08:55:51.913Z,73.10
2023-03-07T08:58:18.573Z,73.40
2023-03-07T09:00:45.341Z,73.30
2023-03-07T09:03:12.004Z,73.10
2023-03-07T09:05:39.099Z,73.30
2023-03-07T09:08:06.825Z,73.50
2023-03-07T09:10:34.439Z,73.60
2023-03-07T09:13:01.244Z,73.70
2023-03-07T09:15:28.013Z,73.60
2023-03-07T09:17:56.626Z,73.70
2023-03-07T09:20:23.537Z,73.80
2023-03-07T09:22:54.328Z,73.70
2023-03-07T09:25:22.122Z,74.00
2023-03-07T09:27:50.441Z,74.30
2023-03-07T09:30:18.745Z,74.40
2023-03-07T09:32:46.065Z,74.90
2023-03-07T09:35:12.835Z,74.80
2023-03-07T09:37:39.544Z,74.70
2023-03-07T09:40:09.726Z,74.70
2023-03-07T09:42:56.328Z,74.70
2023-03-07T09:45:54.567Z,74.50
2023-03-07T09:48:50.286Z,73.90
2023-03-07T09:51:26.972Z,73.70
2023-03-07T09:54:14.862Z,74.30
2023-03-07T09:56:46.661Z,74.80
2023-03-07T09:59:30.610Z,75.10
2023-03-07T10:02:26.448Z,74.90
2023-03-07T10:05:08.457Z,74.90
2023-03-07T10:07:35.600Z,75.10
2023-03-07T10:10:07.449Z,74.70
2023-03-07T10:12:49.916Z,75.30
2023-03-07T10:15:56.252Z,75.30
2023-03-07T10:18:28.457Z,75.10
2023-03-07T10:21:07.218Z,74.80
2023-03-07T10:23:37.140Z,74.80
2023-03-07T10:26:09.921Z,75.10
2023-03-07T10:28:41.845Z,75.20
2023-03-07T10:31:23.228Z,75.00
2023-03-07T10:33:50.495Z,75.10
2023-03-07T10:36:21.405Z,75.10
2023-03-07T10:39:24.972Z,75.00
2023-03-07T10:41:52.154Z,74.90
2023-03-07T10:44:19.519Z,75.00
2023-03-07T10:46:55.439Z,74.90
2023-03-07T10:49:43.983Z,74.70
2023-03-07T10:52:20.955Z,74.50
2023-03-07T10:54:47.672Z,74.00
2023-03-07T10:57:18.494Z,73.70
2023-03-07T10:59:48.440Z,73.60
2023-03-07T11:02:34.725Z,74.30
2023-03-07T11:05:01.803Z,73.30
2023-03-07T11:07:33.964Z,73.30
2023-03-07T11:10:01.560Z,73.10
2023-03-07T11:12:29.437Z,73.00
2023-03-07T11:15:21.726Z,73.10
2023-03-07T11:17:49.153Z,72.80
2023-03-07T11:20:30.121Z,73.40
2023-03-07T11:23:14.972Z,73.60
2023-03-07T11:25:41.649Z,74.70
2023-03-07T11:28:26.659Z,74.30
2023-03-07T11:31:03.112Z,74.90
2023-03-07T11:33:58.592Z,74.70
2023-03-07T11:36:32.112Z,74.90
2023-03-07T11:39:24.329Z,75.00
2023-03-07T11:42:04.002Z,74.80
2023-03-07T11:44:50.873Z,74.70
2023-03-07T11:47:33.714Z,74.60
2023-03-07T11:50:24.426Z,74.60
2023-03-07T11:53:20.190Z,74.30
2023-03-07T11:56:17.228Z,74.20
2023-03-07T11:59:16.361Z,74.40
2023-03-07T12:01:56.395Z,74.60
2023-03-07T12:04:26.679Z,74.60
2023-03-07T12:07:15.477Z,74.60
2023-03-07T12:09:56.199Z,74.70
2023-03-07T12:12:47.217Z,74.40
2023-03-07T12:15:36.465Z,74.70
2023-03-07T12:18:22.052Z,74.70
2023-03-07T12:20:51.814Z,74.70
2023-03-07T12:23:36.166Z,74.60
2023-03-07T12:26:28.799Z,74.50
2023-03-07T12:29:00.573Z,74.70
2023-03-07T12:31:32.278Z,74.60
2023-03-07T12:34:11.845Z,74.60
2023-03-07T12:36:56.457Z,74.70
2023-03-07T12:39:51.204Z,74.60
2023-03-07T12:42:38.910Z,74.60
2023-03-07T12:45:17.820Z,74.80
2023-03-07T12:48:04.700Z,74.90
2023-03-07T12:50:43.809Z,75.20
2023-03-07T12:53:42.912Z,75.20
2023-03-07T12:56:26.395Z,75.30
2023-03-07T12:59:05.808Z,74.90
2023-03-07T13:02:00.183Z,75.00
2023-03-07T13:04:40.307Z,75.50
2023-03-07T13:07:33.821Z,75.20
2023-03-07T13:10:03.557Z,75.90
2023-03-07T13:12:34.943Z,75.60
2023-03-07T13:15:01.704Z,75.30
2023-03-07T13:17:31.709Z,75.00
2023-03-07T13:20:00.647Z,74.20
2023-03-07T13:22:29.221Z,74.40
2023-03-07T13:25:27.190Z,74.30
2023-03-07T13:27:59.267Z,74.10
2023-03-07T13:30:31.519Z,74.00
2023-03-07T13:33:00.226Z,75.30
2023-03-07T13:35:35.803Z,76.50
2023-03-07T13:38:15.101Z,76.00
2023-03-07T13:40:45.160Z,78.80
2023-03-07T13:43:26.341Z,78.60
2023-03-07T13:46:00.199Z,78.80
2023-03-07T13:48:28.495Z,80.50
2023-03-07T13:50:55.350Z,77.60
2023-03-07T13:53:25.298Z,77.90
2023-03-07T13:56:15.047Z,85.30
2023-03-07T13:59:00.927Z,80.10
2023-03-07T14:01:44.358Z,79.40
2023-03-07T14:04:39.896Z,80.10
2023-03-07T14:07:21.299Z,79.00
2023-03-07T14:09:57.200Z,77.40
2023-03-07T14:12:43.111Z,76.90
2023-03-07T14:15:36.551Z,76.40
2023-03-07T14:18:21.990Z,76.40
2023-03-07T14:21:26.828Z,75.80
2023-03-07T14:24:05.551Z,75.90
2023-03-07T14:26:45.172Z,75.90
2023-03-07T14:29:17.961Z,75.70
2023-03-07T14:31:44.903Z,75.50
2023-03-07T14:34:33.829Z,75.40
2023-03-07T14:37:08.908Z,75.00
2023-03-07T14:39:43.142Z,74.60
2023-03-07T14:42:25.975Z,73.90
2023-03-07T14:45:04.902Z,73.90
2023-03-07T14:47:58.118Z,73.50
2023-03-07T14:50:32.829Z,73.10
2023-03-07T14:53:03.007Z,72.90
2023-03-07T14:55:40.146Z,74.30
2023-03-07T14:58:06.900Z,73.30
2023-03-07T15:00:35.847Z,73.10
2023-03-07T15:03:07.892Z,73.50
2023-03-07T15:05:46.316Z,73.10
2023-03-07T15:08:31.648Z,71.80
2023-03-07T15:11:04.615Z,72.40
2023-03-07T15:14:12.169Z,71.80
2023-03-07T15:17:05.860Z,71.50
2023-03-07T15:19:41.625Z,72.20
2023-03-07T15:22:26.999Z,72.80
2023-03-07T15:24:54.106Z,72.50
2023-03-07T15:27:24.753Z,72.80
2023-03-07T15:29:51.842Z,72.60
2023-03-07T15:32:32.735Z,72.70
2023-03-07T15:35:11.140Z,71.60
2023-03-07T15:38:16.045Z,72.20
2023-03-07T15:40:43.099Z,72.90
2023-03-07T15:43:24.976Z,72.90
2023-03-07T15:46:03.799Z,72.70
2023-03-07T15:49:00.639Z,72.10
2023-03-07T15:51:33.497Z,72.30
2023-03-07T15:54:13.881Z,72.30
2023-03-07T15:56:41.372Z,71.70
2023-03-07T15:59:30.815Z,71.30
2023-03-07T16:01:58.173Z,70.90
2023-03-07T16:04:39.063Z,69.80
2023-03-07T16:07:07.875Z,69.80
2023-03-07T16:09:35.182Z,70.60
2023-03-07T16:12:03.469Z,69.50
2023-03-07T16:14:32.627Z,70.70
2023-03-07T16:17:01.440Z,70.10
2023-03-07T16:19:28.364Z,70.60
2023-03-07T16:21:55.095Z,70.30
2023-03-07T16:24:22.083Z,69.70
2023-03-07T16:26:49.246Z,68.60
2023-03-07T16:29:20.152Z,70.50
2023-03-07T16:31:46.941Z,70.30
2023-03-07T16:34:18.724Z,70.70
2023-03-07T16:36:47.246Z,69.60
2023-03-07T16:39:14.345Z,70.10
2023-03-07T16:41:48.799Z,68.60
2023-03-07T16:44:19.490Z,68.70
2023-03-07T16:46:50.474Z,54.50
2023-03-07T16:49:20.272Z,58.00
2023-03-07T16:51:51.055Z,60.20
2023-03-07T16:54:27.524Z,61.10
2023-03-07T16:56:55.273Z,59.70
2023-03-07T16:59:22.955Z,59.20
2023-03-07T17:01:51.188Z,59.50
2023-03-07T17:04:17.999Z,59.70
2023-03-07T17:06:46.134Z,59.80
2023-03-07T17:09:14.144Z,60.00
2023-03-07T17:11:45.793Z,60.60
2023-03-07T17:14:12.679Z,61.10
2023-03-07T17:16:43.653Z,61.20
2023-03-07T17:19:27.043Z,61.50
2023-03-07T17:21:53.896Z,61.60
2023-03-07T17:24:20.635Z,62.60
2023-03-07T17:26:47.389Z,61.90
2023-03-07T17:29:28.555Z,61.90
2023-03-07T17:31:55.292Z,62.30
2023-03-07T17:34:26.738Z,62.20
2023-03-07T17:36:53.765Z,62.40
2023-03-07T17:39:20.622Z,63.10
2023-03-07T17:41:47.510Z,63.30
2023-03-07T17:44:15.904Z,62.10
2023-03-07T17:46:43.807Z,63.40
2023-03-07T17:49:10.604Z,63.90
2023-03-07T17:51:37.370Z,63.90
2023-03-07T17:54:06.372Z,64.10
2023-03-07T17:56:33.147Z,64.40
2023-03-07T17:59:02.786Z,63.70
2023-03-07T18:01:31.689Z,63.30
2023-03-07T18:03:58.416Z,63.40
2023-03-07T18:06:25.134Z,63.60
2023-03-07T18:08:51.904Z,64.30
2023-03-07T18:11:18.680Z,63.80
2023-03-07T18:13:45.438Z,63.90
2023-03-07T18:16:12.364Z,63.70
2023-03-07T18:18:43.313Z,64.00
2023-03-07T18:21:24.930Z,63.90
2023-03-07T18:23:51.981Z,63.90
2023-03-07T18:26:19.394Z,64.40
2023-03-07T18:28:46.833Z,63.90
2023-03-07T18:31:21.349Z,64.00
2023-03-07T18:33:51.005Z,64.00
2023-03-07T18:36:17.791Z,64.20
2023-03-07T18:38:44.799Z,64.50
2023-03-07T18:41:16.067Z,64.80
2023-03-07T18:43:42.822Z,64.80
2023-03-07T18:46:14.442Z,65.30
2023-03-07T18:48:41.194Z,65.40
2023-03-07T18:51:12.633Z,65.90
2023-03-07T18:53:39.713Z,65.80
2023-03-07T18:56:15.908Z,72.30
2023-03-07T18:58:43.551Z,66.40
2023-03-07T19:01:14.450Z,66.60
2023-03-07T19:03:41.432Z,67.40
2023-03-07T19:06:09.374Z,66.60
2023-03-07T19:08:36.403Z,66.60
2023-03-07T19:11:04.571Z,66.80
2023-03-07T19:13:32.632Z,67.40
2023-03-07T19:16:19.427Z,69.60
2023-03-07T19:18:46.335Z,70.10
2023-03-07T19:21:19.002Z,71.20
2023-03-07T19:23:45.816Z,72.60
2023-03-07T19:26:13.718Z,71.00
2023-03-07T19:28:40.574Z,70.00
2023-03-07T19:31:16.517Z,69.60
2023-03-07T19:33:43.599Z,68.90
2023-03-07T19:36:11.850Z,68.60
2023-03-07T19:38:38.770Z,69.10
2023-03-07T19:41:06.598Z,68.30
2023-03-07T19:43:34.470Z,68.10
2023-03-07T19:46:02.191Z,68.10
2023-03-07T19:48:29.501Z,68.10
2023-03-07T19:50:56.379Z,67.70
2023-03-07T19:53:23.170Z,67.50
2023-03-07T19:55:49.891Z,67.70
2023-03-07T19:58:16.631Z,68.00
2023-03-07T20:00:44.209Z,67.80
2023-03-07T20:03:13.404Z,67.50
2023-03-07T20:05:43.667Z,67.50
2023-03-07T20:08:10.513Z,67.40
2023-03-07T20:10:40.256Z,67.30
2023-03-07T20:13:07.242Z,67.50
2023-03-07T20:15:35.304Z,68.00
2023-03-07T20:18:05.599Z,68.20
2023-03-07T20:20:35.039Z,68.30
2023-03-07T20:23:02.203Z,68.10
2023-03-07T20:25:29.911Z,67.50
2023-03-07T20:27:56.651Z,67.40
2023-03-07T20:30:23.933Z,67.70
2023-03-07T20:32:50.599Z,68.10
2023-03-07T20:35:17.351Z,67.00
2023-03-07T20:37:44.065Z,67.50
2023-03-07T20:40:11.468Z,67.50
2023-03-07T20:42:38.246Z,67.30
2023-03-07T20:45:05.410Z,67.10
2023-03-07T20:47:36.245Z,66.90
2023-03-07T20:50:03.775Z,66.60
2023-03-07T20:52:30.496Z,66.60
2023-03-07T20:54:57.155Z,66.40
2023-03-07T20:57:23.847Z,66.50
2023-03-07T20:59:50.500Z,66.50
2023-03-07T21:02:17.248Z,66.50
2023-03-07T21:04:43.974Z,66.40
2023-03-07T21:07:10.639Z,66.40
2023-03-07T21:09:37.331Z,66.40
2023-03-07T21:12:05.415Z,68.40
2023-03-07T21:14:33.927Z,67.70
2023-03-07T21:17:03.051Z,68.80
2023-03-07T21:19:29.787Z,68.20
2023-03-07T21:21:58.899Z,68.90
2023-03-07T21:24:25.589Z,68.70
2023-03-07T21:26:52.310Z,68.70
2023-03-07T21:29:19.026Z,68.50
2023-03-07T21:31:45.741Z,68.10
2023-03-07T21:34:13.611Z,68.00
2023-03-07T21:36:40.337Z,67.90
2023-03-07T21:39:09.703Z,67.90
2023-03-07T21:41:36.765Z,67.80
2023-03-07T21:44:05.238Z,67.60
2023-03-07T21:46:32.299Z,67.40
2023-03-07T21:48:59.700Z,67.40
2023-03-07T21:51:26.480Z,67.30
2023-03-07T21:53:53.165Z,67.40
2023-03-07T21:56:20.530Z,67.40
2023-03-07T21:58:48.598Z,67.40
2023-03-07T22:01:17.458Z,67.50
2023-03-07T22:03:44.284Z,67.20
2023-03-07T22:06:13.019Z,67.10
2023-03-07T22:08:39.964Z,67.50
2023-03-07T22:11:07.751Z,67.80
2023-03-07T22:13:36.961Z,68.00
2023-03-07T22:16:06.812Z,68.40
2023-03-07T22:18:33.716Z,68.60
2023-03-07T22:21:08.308Z,68.70
2023-03-07T22:23:36.927Z,68.70
2023-03-07T22:26:07.092Z,68.80
2023-03-07T22:28:33.803Z,69.10
2023-03-07T22:31:02.322Z,68.90
2023-03-07T22:33:29.360Z,68.50
2023-03-07T22:36:00.445Z,68.20
2023-03-07T22:38:27.407Z,68.10
2023-03-07T22:40:54.396Z,68.10
2023-03-07T22:43:21.427Z,68.20
2023-03-07T22:45:50.062Z,68.60
2023-03-07T22:48:17.281Z,68.90
2023-03-07T22:50:44.445Z,69.20
2023-03-07T22:53:11.375Z,69.40
2023-03-07T22:55:41.457Z,69.30
2023-03-07T22:58:09.948Z,69.30
2023-03-07T23:00:37.437Z,69.30
2023-03-07T23:03:04.205Z,69.30
2023-03-07T23:05:32.557Z,69.30
2023-03-07T23:08:00.155Z,69.40
2023-03-07T23:10:27.272Z,70.30
2023-03-07T23:12:53.985Z,69.50
2023-03-07T23:15:20.752Z,69.60
2023-03-07T23:17:47.678Z,69.60
2023-03-07T23:20:14.384Z,69.70
2023-03-07T23:22:42.776Z,69.60
2023-03-07T23:25:11.226Z,69.70
2023-03-07T23:27:38.525Z,69.80
2023-03-07T23:30:08.813Z,69.90
2023-03-07T23:32:35.808Z,69.90
2023-03-07T23:35:02.584Z,69.90
2023-03-07T23:37:29.287Z,70.80
2023-03-07T23:39:56.001Z,69.90
2023-03-07T23:42:23.100Z,70.00
2023-03-07T23:44:49.879Z,70.00
2023-03-07T23:47:16.789Z,70.10
2023-03-07T23:49:43.644Z,70.10
2023-03-07T23:52:10.975Z,70.10
2023-03-07T23:54:37.737Z,70.10
2023-03-07T23:57:04.400Z,70.10
2023-03-07T23:59:31.178Z,70.00
